Airfield :
LOGIN :

Register | Disclaimer

   EN    FR    IT 

 










Legend :    VFR   Marginal VFR   IFR   Intensive IFR   Very Intensive IFR
Visi :
Ceiling :
>= 8 km
>= 3000ft
5 to 8 km
1000 to 3000 ft
1500m to 5 km
500 to 1000 ft
800 to 1500m
200 to 500 ft
< 800m
< 200 ft
Symbols :   Thunderstorms  Fog  Heavy snow  Heavy precipitations  Wind > 20 kt
SIGMETs :     Misc.  Thunderstorms  Icing  Turbulence  Mountain Waves  Volcanic Ashes






- Airport Elevation : 146 ft
- IATA code : RKE


EKRK - Roskilde Tune

CURRENT METAR :
  • 191520Z AUTO 29009KT 9999 NCD 05/03 Q1008

EXPIRED METARs :
  • 191450Z AUTO 29009KT 9999 BKN016/// 05/03 Q1008
  • 191420Z AUTO 30012KT 9999 BKN015/// 05/03 Q1007
  • 191350Z AUTO 29012KT 9999 FEW015/// SCT034/// BKN160/// 05/03 Q1007
  • 191320Z AUTO 28011KT 9999 BKN021/// BKN180/// 06/03 Q1006
  • 191250Z AUTO 29011KT 9999 SCT015/// BKN023/// 06/02 Q1006

TAF TAF EKRK
Valid from the 19 at 15:00 until the 20 at 00:00 UTC


191403Z 1915/1924 27012KT 9999 SCT020
TEMPO 1918/1922 4000 SHRA BKN010 BKN020CB



MET'MAP, your aeronautical weather chart ! - Copyright ORBIFLY December 2007 - Disclaimer

ORBIFLY MET'MAP TEAM :

Programming & Development : Alexandra Zaïnal
Concept & original design : Baudouin d'Aumeries
Assistance for programming : Marc-Olivier Méhu
Technical & hardware support : Manuel Goepfert

Contact : metmap@orbifly.com




SOURCES & CREDITS :

   NOAA